sensor_id;sensor_type;location;lat;lon;timestamp;pressure;altitude;pressure_sealevel;temperature;humidity
19086;BME280;9675;51.538;6.728;2023-04-01T00:01:48;98932.59;;;10.62;100.00
19086;BME280;9675;51.538;6.728;2023-04-01T00:04:16;98937.69;;;10.60;100.00
19086;BME280;9675;51.538;6.728;2023-04-01T00:06:43;98935.97;;;10.59;100.00
19086;BME280;9675;51.538;6.728;2023-04-01T00:09:10;98942.81;;;10.59;100.00
19086;BME280;9675;51.538;6.728;2023-04-01T00:11:39;98933.38;;;10.59;100.00
19086;BME280;9675;51.538;6.728;2023-04-01T00:14:07;98929.94;;;10.59;100.00
19086;BME280;9675;51.538;6.728;2023-04-01T00:16:34;98942.81;;;10.59;100.00
19086;BME280;9675;51.538;6.728;2023-04-01T00:19:02;98940.25;;;10.59;100.00
19086;BME280;9675;51.538;6.728;2023-04-01T00:21:29;98941.94;;;10.58;100.00
19086;BME280;9675;51.538;6.728;2023-04-01T00:23:56;98939.31;;;10.57;100.00
19086;BME280;9675;51.538;6.728;2023-04-01T00:26:25;98932.47;;;10.57;100.00
19086;BME280;9675;51.538;6.728;2023-04-01T00:28:53;98932.47;;;10.56;100.00
19086;BME280;9675;51.538;6.728;2023-04-01T00:31:21;98923.06;;;10.56;100.00
19086;BME280;9675;51.538;6.728;2023-04-01T00:33:48;98926.47;;;10.55;100.00
19086;BME280;9675;51.538;6.728;2023-04-01T00:36:18;98931.59;;;10.55;100.00
19086;BME280;9675;51.538;6.728;2023-04-01T00:38:45;98940.16;;;10.54;100.00
19086;BME280;9675;51.538;6.728;2023-04-01T00:41:14;98935.00;;;10.54;100.00
19086;BME280;9675;51.538;6.728;2023-04-01T00:43:45;98933.31;;;10.55;100.00
19086;BME280;9675;51.538;6.728;2023-04-01T00:46:14;98947.03;;;10.55;100.00
19086;BME280;9675;51.538;6.728;2023-04-01T00:48:45;98940.13;;;10.51;100.00
19086;BME280;9675;51.538;6.728;2023-04-01T00:51:18;98931.44;;;10.48;100.00
19086;BME280;9675;51.538;6.728;2023-04-01T00:53:50;98938.28;;;10.47;100.00
19086;BME280;9675;51.538;6.728;2023-04-01T00:56:22;98933.97;;;10.45;100.00
19086;BME280;9675;51.538;6.728;2023-04-01T00:58:54;98932.22;;;10.44;100.00
19086;BME280;9675;51.538;6.728;2023-04-01T01:01:25;98934.00;;;10.46;100.00
19086;BME280;9675;51.538;6.728;2023-04-01T01:03:52;98929.69;;;10.45;100.00
19086;BME280;9675;51.538;6.728;2023-04-01T01:06:42;98933.94;;;10.43;100.00
19086;BME280;9675;51.538;6.728;2023-04-01T01:09:30;98919.31;;;10.42;100.00
19086;BME280;9675;51.538;6.728;2023-04-01T01:12:07;98927.91;;;10.41;100.00
19086;BME280;9675;51.538;6.728;2023-04-01T01:14:51;98922.75;;;10.41;100.00
19086;BME280;9675;51.538;6.728;2023-04-01T01:17:33;98922.69;;;10.38;100.00
19086;BME280;9675;51.538;6.728;2023-04-01T01:24:22;98915.81;;;10.37;100.00
19086;BME280;9675;51.538;6.728;2023-04-01T01:27:04;98913.25;;;10.39;100.00
19086;BME280;9675;51.538;6.728;2023-04-01T01:30:18;98909.00;;;10.39;100.00
19086;BME280;9675;51.538;6.728;2023-04-01T01:33:12;98905.59;;;10.40;100.00
19086;BME280;9675;51.538;6.728;2023-04-01T01:35:46;98901.22;;;10.36;100.00
19086;BME280;9675;51.538;6.728;2023-04-01T01:38:17;98908.09;;;10.37;100.00
19086;BME280;9675;51.538;6.728;2023-04-01T01:40:49;98903.81;;;10.36;100.00
19086;BME280;9675;51.538;6.728;2023-04-01T01:43:24;98908.03;;;10.34;100.00
19086;BME280;9675;51.538;6.728;2023-04-01T01:45:57;98908.88;;;10.33;100.00
19086;BME280;9675;51.538;6.728;2023-04-01T01:48:27;98911.44;;;10.33;100.00
19086;BME280;9675;51.538;6.728;2023-04-01T01:50:58;98908.88;;;10.33;100.00
19086;BME280;9675;51.538;6.728;2023-04-01T01:53:25;98911.44;;;10.33;100.00
19086;BME280;9675;51.538;6.728;2023-04-01T01:55:52;98907.16;;;10.34;100.00
19086;BME280;9675;51.538;6.728;2023-04-01T01:58:25;98913.16;;;10.33;100.00
19086;BME280;9675;51.538;6.728;2023-04-01T02:00:58;98904.50;;;10.29;100.00
19086;BME280;9675;51.538;6.728;2023-04-01T02:03:29;98907.94;;;10.30;100.00
19086;BME280;9675;51.538;6.728;2023-04-01T02:06:04;98912.22;;;10.29;100.00
19086;BME280;9675;51.538;6.728;2023-04-01T02:08:36;98917.34;;;10.28;100.00
19086;BME280;9675;51.538;6.728;2023-04-01T02:11:08;98915.63;;;10.28;100.00
19086;BME280;9675;51.538;6.728;2023-04-01T02:13:41;98918.16;;;10.27;100.00
19086;BME280;9675;51.538;6.728;2023-04-01T02:16:16;98922.44;;;10.26;100.00
19086;BME280;9675;51.538;6.728;2023-04-01T02:18:50;98924.16;;;10.26;100.00
19086;BME280;9675;51.538;6.728;2023-04-01T02:21:24;98928.44;;;10.25;100.00
19086;BME280;9675;51.538;6.728;2023-04-01T02:23:55;98923.31;;;10.25;100.00
19086;BME280;9675;51.538;6.728;2023-04-01T02:26:25;98926.75;;;10.26;100.00
19086;BME280;9675;51.538;6.728;2023-04-01T02:28:54;98934.47;;;10.26;100.00
19086;BME280;9675;51.538;6.728;2023-04-01T02:31:23;98922.44;;;10.26;100.00
19086;BME280;9675;51.538;6.728;2023-04-01T02:33:51;98931.03;;;10.27;100.00
19086;BME280;9675;51.538;6.728;2023-04-01T02:36:20;98932.72;;;10.26;100.00
19086;BME280;9675;51.538;6.728;2023-04-01T02:38:49;98943.00;;;10.26;100.00
19086;BME280;9675;51.538;6.728;2023-04-01T02:41:17;98944.72;;;10.24;100.00
19086;BME280;9675;51.538;6.728;2023-04-01T02:43:44;98937.81;;;10.23;100.00
19086;BME280;9675;51.538;6.728;2023-04-01T02:46:12;98945.56;;;10.25;100.00
19086;BME280;9675;51.538;6.728;2023-04-01T02:48:39;98946.38;;;10.22;100.00
19086;BME280;9675;51.538;6.728;2023-04-01T02:51:07;98954.09;;;10.22;100.00
19086;BME280;9675;51.538;6.728;2023-04-01T02:53:36;98946.31;;;10.19;100.00
19086;BME280;9675;51.538;6.728;2023-04-01T02:56:03;98954.88;;;10.18;100.00
19086;BME280;9675;51.538;6.728;2023-04-01T02:58:31;98953.13;;;10.17;100.00
19086;BME280;9675;51.538;6.728;2023-04-01T03:00:58;98946.25;;;10.16;100.00
19086;BME280;9675;51.538;6.728;2023-04-01T03:03:25;98954.03;;;10.19;100.00
19086;BME280;9675;51.538;6.728;2023-04-01T03:05:52;98953.22;;;10.20;100.00
19086;BME280;9675;51.538;6.728;2023-04-01T03:08:21;98954.91;;;10.21;100.00
19086;BME280;9675;51.538;6.728;2023-04-01T03:10:49;98956.66;;;10.22;100.00
19086;BME280;9675;51.538;6.728;2023-04-01T03:13:16;98960.97;;;10.23;100.00
19086;BME280;9675;51.538;6.728;2023-04-01T03:15:43;98957.53;;;10.22;100.00
19086;BME280;9675;51.538;6.728;2023-04-01T03:18:10;98960.06;;;10.21;100.00
19086;BME280;9675;51.538;6.728;2023-04-01T03:20:37;98960.09;;;10.22;100.00
19086;BME280;9675;51.538;6.728;2023-04-01T03:23:04;98961.84;;;10.23;100.00
19086;BME280;9675;51.538;6.728;2023-04-01T03:25:31;98967.03;;;10.25;100.00
19086;BME280;9675;51.538;6.728;2023-04-01T03:27:59;98967.91;;;10.26;100.00
19086;BME280;9675;51.538;6.728;2023-04-01T03:30:27;98967.84;;;10.24;100.00
19086;BME280;9675;51.538;6.728;2023-04-01T03:32:55;98969.56;;;10.23;100.00
19086;BME280;9675;51.538;6.728;2023-04-01T03:35:23;98973.78;;;10.20;100.00
19086;BME280;9675;51.538;6.728;2023-04-01T03:37:51;98970.34;;;10.21;100.00
19086;BME280;9675;51.538;6.728;2023-04-01T03:40:18;98973.84;;;10.23;100.00
19086;BME280;9675;51.538;6.728;2023-04-01T03:42:45;98978.09;;;10.22;100.00
19086;BME280;9675;51.538;6.728;2023-04-01T03:45:14;98966.94;;;10.22;100.00
19086;BME280;9675;51.538;6.728;2023-04-01T03:47:41;98973.78;;;10.20;100.00
19086;BME280;9675;51.538;6.728;2023-04-01T03:50:09;98967.72;;;10.18;100.00
19086;BME280;9675;51.538;6.728;2023-04-01T03:52:36;98975.34;;;10.15;100.00
19086;BME280;9675;51.538;6.728;2023-04-01T03:55:04;98966.81;;;10.16;100.00
19086;BME280;9675;51.538;6.728;2023-04-01T03:57:31;98973.66;;;10.15;100.00
19086;BME280;9675;51.538;6.728;2023-04-01T04:00:00;98977.09;;;10.16;100.00
19086;BME280;9675;51.538;6.728;2023-04-01T04:02:29;98968.47;;;10.14;100.00
19086;BME280;9675;51.538;6.728;2023-04-01T04:04:56;98977.09;;;10.16;100.00
19086;BME280;9675;51.538;6.728;2023-04-01T04:07:23;98976.28;;;10.17;100.00
19086;BME280;9675;51.538;6.728;2023-04-01T04:09:50;98973.69;;;10.17;100.00
19086;BME280;9675;51.538;6.728;2023-04-01T04:12:17;98976.28;;;10.17;100.00
19086;BME280;9675;51.538;6.728;2023-04-01T04:14:44;98984.00;;;10.17;100.00
19086;BME280;9675;51.538;6.728;2023-04-01T04:17:11;98980.50;;;10.15;100.00
19086;BME280;9675;51.538;6.728;2023-04-01T04:19:43;98983.06;;;10.15;100.00
19086;BME280;9675;51.538;6.728;2023-04-01T04:22:10;98989.91;;;10.14;100.00
19086;BME280;9675;51.538;6.728;2023-04-01T04:24:37;98978.75;;;10.14;100.00
19086;BME280;9675;51.538;6.728;2023-04-01T04:27:05;98987.31;;;10.13;100.00
19086;BME280;9675;51.538;6.728;2023-04-01T04:29:31;98998.47;;;10.13;100.00
19086;BME280;9675;51.538;6.728;2023-04-01T04:31:58;98987.31;;;10.13;100.00
19086;BME280;9675;51.538;6.728;2023-04-01T04:34:25;98999.34;;;10.14;100.00
19086;BME280;9675;51.538;6.728;2023-04-01T04:36:54;98989.09;;;10.15;100.00
19086;BME280;9675;51.538;6.728;2023-04-01T04:39:21;98997.69;;;10.16;100.00
19086;BME280;9675;51.538;6.728;2023-04-01T04:41:48;98996.72;;;10.12;100.00
19086;BME280;9675;51.538;6.728;2023-04-01T04:44:15;99001.00;;;10.12;100.00
19086;BME280;9675;51.538;6.728;2023-04-01T04:46:42;98994.97;;;10.11;100.00
19086;BME280;9675;51.538;6.728;2023-04-01T04:49:09;98996.75;;;10.14;100.00
19086;BME280;9675;51.538;6.728;2023-04-01T04:51:36;98997.59;;;10.13;100.00
19086;BME280;9675;51.538;6.728;2023-04-01T04:54:06;99007.00;;;10.12;100.00
19086;BME280;9675;51.538;6.728;2023-04-01T04:56:35;98999.25;;;10.11;100.00
19086;BME280;9675;51.538;6.728;2023-04-01T04:59:02;99005.25;;;10.10;100.00
19086;BME280;9675;51.538;6.728;2023-04-01T05:01:29;99001.81;;;10.11;100.00
19086;BME280;9675;51.538;6.728;2023-04-01T05:03:56;99005.25;;;10.10;100.00
19086;BME280;9675;51.538;6.728;2023-04-01T05:06:24;99006.09;;;10.09;100.00
19086;BME280;9675;51.538;6.728;2023-04-01T05:08:51;99005.16;;;10.07;100.00
19086;BME280;9675;51.538;6.728;2023-04-01T05:11:20;99007.75;;;10.07;100.00
19086;BME280;9675;51.538;6.728;2023-04-01T05:13:47;99007.75;;;10.07;100.00
19086;BME280;9675;51.538;6.728;2023-04-01T05:16:19;99015.44;;;10.07;100.00
19086;BME280;9675;51.538;6.728;2023-04-01T05:18:47;99006.00;;;10.06;100.00
19086;BME280;9675;51.538;6.728;2023-04-01T05:21:15;99012.00;;;10.05;100.00
19086;BME280;9675;51.538;6.728;2023-04-01T05:23:43;99017.16;;;10.05;100.00
19086;BME280;9675;51.538;6.728;2023-04-01T05:26:13;99021.44;;;10.06;100.00
19086;BME280;9675;51.538;6.728;2023-04-01T05:28:42;99024.84;;;10.05;100.00
19086;BME280;9675;51.538;6.728;2023-04-01T05:31:09;99023.94;;;10.03;100.00
19086;BME280;9675;51.538;6.728;2023-04-01T05:33:37;99023.13;;;10.04;100.00
19086;BME280;9675;51.538;6.728;2023-04-01T05:36:08;99018.84;;;10.04;100.00
19086;BME280;9675;51.538;6.728;2023-04-01T05:38:36;99034.28;;;10.04;100.00
19086;BME280;9675;51.538;6.728;2023-04-01T05:41:04;99028.25;;;10.04;100.00
19086;BME280;9675;51.538;6.728;2023-04-01T05:43:31;99030.00;;;10.05;100.00
19086;BME280;9675;51.538;6.728;2023-04-01T05:45:59;99036.84;;;10.06;100.00
19086;BME280;9675;51.538;6.728;2023-04-01T05:48:27;99038.53;;;10.04;100.00
19086;BME280;9675;51.538;6.728;2023-04-01T05:50:54;99035.97;;;10.04;100.00
19086;BME280;9675;51.538;6.728;2023-04-01T05:53:21;99037.72;;;10.05;100.00
19086;BME280;9675;51.538;6.728;2023-04-01T05:55:48;99035.16;;;10.05;100.00
19086;BME280;9675;51.538;6.728;2023-04-01T05:58:15;99032.56;;;10.05;100.00
19086;BME280;9675;51.538;6.728;2023-04-01T06:00:42;99038.53;;;10.04;100.00
19086;BME280;9675;51.538;6.728;2023-04-01T06:03:10;99042.81;;;10.03;100.00
19086;BME280;9675;51.538;6.728;2023-04-01T06:05:40;99043.66;;;10.02;100.00
19086;BME280;9675;51.538;6.728;2023-04-01T06:08:13;99043.66;;;10.02;100.00
19086;BME280;9675;51.538;6.728;2023-04-01T06:10:58;99043.66;;;10.02;100.00
19086;BME280;9675;51.538;6.728;2023-04-01T06:13:57;99041.91;;;10.01;100.00
19086;BME280;9675;51.538;6.728;2023-04-01T06:16:42;99048.75;;;10.01;100.00
19086;BME280;9675;51.538;6.728;2023-04-01T06:19:30;99043.59;;;10.01;100.00
19086;BME280;9675;51.538;6.728;2023-04-01T06:22:35;99051.31;;;9.99;100.00
19086;BME280;9675;51.538;6.728;2023-04-01T06:25:46;99053.81;;;9.98;100.00
19086;BME280;9675;51.538;6.728;2023-04-01T06:31:50;99065.84;;;9.99;100.00
19086;BME280;9675;51.538;6.728;2023-04-01T06:34:48;99056.44;;;9.99;100.00
19086;BME280;9675;51.538;6.728;2023-04-01T06:41:06;99071.00;;;9.99;100.00
19086;BME280;9675;51.538;6.728;2023-04-01T06:43:49;99070.19;;;10.01;100.00
19086;BME280;9675;51.538;6.728;2023-04-01T06:46:31;99072.75;;;10.00;100.00
19086;BME280;9675;51.538;6.728;2023-04-01T06:49:21;99078.72;;;10.00;100.00
19086;BME280;9675;51.538;6.728;2023-04-01T06:51:59;99077.88;;;10.00;100.00
19086;BME280;9675;51.538;6.728;2023-04-01T06:54:33;99076.13;;;9.99;100.00
19086;BME280;9675;51.538;6.728;2023-04-01T06:57:12;99077.88;;;10.00;100.00
19086;BME280;9675;51.538;6.728;2023-04-01T06:59:45;99079.59;;;10.01;100.00
19086;BME280;9675;51.538;6.728;2023-04-01T07:02:25;99075.31;;;10.01;100.00
19086;BME280;9675;51.538;6.728;2023-04-01T07:04:58;99083.03;;;10.00;100.00
19086;BME280;9675;51.538;6.728;2023-04-01T07:07:35;99081.28;;;9.99;100.00
19086;BME280;9675;51.538;6.728;2023-04-01T07:10:13;99089.88;;;10.01;100.00
19086;BME280;9675;51.538;6.728;2023-04-01T07:12:48;99083.84;;;9.99;100.00
19086;BME280;9675;51.538;6.728;2023-04-01T07:15:22;99094.13;;;9.99;100.00
19086;BME280;9675;51.538;6.728;2023-04-01T07:17:56;99099.28;;;10.00;100.00
19086;BME280;9675;51.538;6.728;2023-04-01T07:20:29;99095.03;;;10.01;100.00
19086;BME280;9675;51.538;6.728;2023-04-01T07:23:02;99103.59;;;10.00;100.00
19086;BME280;9675;51.538;6.728;2023-04-01T07:25:33;99096.75;;;10.02;100.00
19086;BME280;9675;51.538;6.728;2023-04-01T07:28:06;99108.78;;;10.03;100.00
19086;BME280;9675;51.538;6.728;2023-04-01T07:30:48;99109.63;;;10.02;100.00
19086;BME280;9675;51.538;6.728;2023-04-01T07:33:25;99116.50;;;10.03;100.00
19086;BME280;9675;51.538;6.728;2023-04-01T07:36:03;99117.34;;;10.02;100.00
19086;BME280;9675;51.538;6.728;2023-04-01T07:38:50;99110.50;;;10.02;100.00
19086;BME280;9675;51.538;6.728;2023-04-01T07:41:28;99111.41;;;10.04;100.00
19086;BME280;9675;51.538;6.728;2023-04-01T07:44:11;99112.28;;;10.05;100.00
19086;BME280;9675;51.538;6.728;2023-04-01T07:47:08;99124.28;;;10.04;100.00
19086;BME280;9675;51.538;6.728;2023-04-01T07:49:56;99125.16;;;10.05;100.00
19086;BME280;9675;51.538;6.728;2023-04-01T07:52:35;99132.84;;;10.05;100.00
19086;BME280;9675;51.538;6.728;2023-04-01T07:55:14;99129.41;;;10.04;100.00
19086;BME280;9675;51.538;6.728;2023-04-01T07:57:49;99141.41;;;10.04;100.00
19086;BME280;9675;51.538;6.728;2023-04-01T08:00:24;99142.22;;;10.03;100.00
19086;BME280;9675;51.538;6.728;2023-04-01T08:03:24;99143.97;;;10.04;100.00
19086;BME280;9675;51.538;6.728;2023-04-01T08:05:57;99143.97;;;10.05;100.00
19086;BME280;9675;51.538;6.728;2023-04-01T08:08:43;99150.88;;;10.06;100.00
19086;BME280;9675;51.538;6.728;2023-04-01T08:11:29;99153.44;;;10.06;100.00
19086;BME280;9675;51.538;6.728;2023-04-01T08:14:09;99159.41;;;10.05;100.00
19086;BME280;9675;51.538;6.728;2023-04-01T08:16:48;99162.03;;;10.07;100.00
19086;BME280;9675;51.538;6.728;2023-04-01T08:19:31;99163.72;;;10.06;100.00
19086;BME280;9675;51.538;6.728;2023-04-01T08:22:11;99165.44;;;10.06;100.00
19086;BME280;9675;51.538;6.728;2023-04-01T08:24:43;99179.22;;;10.08;100.00
19086;BME280;9675;51.538;6.728;2023-04-01T08:27:23;99186.09;;;10.10;100.00
19086;BME280;9675;51.538;6.728;2023-04-01T08:29:58;99180.13;;;10.10;100.00
19086;BME280;9675;51.538;6.728;2023-04-01T08:32:34;99184.41;;;10.09;100.00
19086;BME280;9675;51.538;6.728;2023-04-01T08:35:14;99180.94;;;10.09;100.00
19086;BME280;9675;51.538;6.728;2023-04-01T08:37:45;99189.56;;;10.11;100.00
19086;BME280;9675;51.538;6.728;2023-04-01T08:40:37;99191.25;;;10.09;100.00
19086;BME280;9675;51.538;6.728;2023-04-01T08:43:16;99193.81;;;10.10;100.00
19086;BME280;9675;51.538;6.728;2023-04-01T08:46:17;99199.84;;;10.11;100.00
19086;BME280;9675;51.538;6.728;2023-04-01T08:49:16;99199.00;;;10.12;100.00
19086;BME280;9675;51.538;6.728;2023-04-01T08:52:22;99204.16;;;10.12;100.00
19086;BME280;9675;51.538;6.728;2023-04-01T08:55:27;99210.22;;;10.14;100.00
19086;BME280;9675;51.538;6.728;2023-04-01T08:58:27;99218.00;;;10.15;100.00
19086;BME280;9675;51.538;6.728;2023-04-01T09:01:14;99204.25;;;10.15;100.00
19086;BME280;9675;51.538;6.728;2023-04-01T09:04:06;99212.84;;;10.15;100.00
19086;BME280;9675;51.538;6.728;2023-04-01T09:06:52;99219.78;;;10.18;100.00
19086;BME280;9675;51.538;6.728;2023-04-01T09:09:59;99212.13;;;10.21;100.00
19086;BME280;9675;51.538;6.728;2023-04-01T09:12:54;99220.91;;;10.29;100.00
19086;BME280;9675;51.538;6.728;2023-04-01T09:15:50;99230.34;;;10.29;100.00
19086;BME280;9675;51.538;6.728;2023-04-01T09:19:10;99227.75;;;10.29;100.00
19086;BME280;9675;51.538;6.728;2023-04-01T09:22:25;99233.78;;;10.29;100.00
19086;BME280;9675;51.538;6.728;2023-04-01T09:25:29;99238.94;;;10.29;100.00
19086;BME280;9675;51.538;6.728;2023-04-01T09:28:10;99230.34;;;10.29;100.00
19086;BME280;9675;51.538;6.728;2023-04-01T09:31:26;99239.81;;;10.31;100.00
19086;BME280;9675;51.538;6.728;2023-04-01T09:34:30;99242.44;;;10.33;100.00
19086;BME280;9675;51.538;6.728;2023-04-01T09:37:19;99242.47;;;10.34;100.00
19086;BME280;9675;51.538;6.728;2023-04-01T09:40:14;99257.91;;;10.34;100.00
19086;BME280;9675;51.538;6.728;2023-04-01T09:42:49;99254.53;;;10.37;100.00
19086;BME280;9675;51.538;6.728;2023-04-01T09:45:48;99256.28;;;10.36;100.00
19086;BME280;9675;51.538;6.728;2023-04-01T09:48:43;99262.31;;;10.38;100.00
19086;BME280;9675;51.538;6.728;2023-04-01T09:51:33;99270.03;;;10.38;100.00
19086;BME280;9675;51.538;6.728;2023-04-01T09:54:31;99269.19;;;10.39;100.00
19086;BME280;9675;51.538;6.728;2023-04-01T10:01:19;99273.56;;;10.43;100.00
19086;BME280;9675;51.538;6.728;2023-04-01T10:07:51;99285.66;;;10.46;100.00
19086;BME280;9675;51.538;6.728;2023-04-01T10:11:19;99291.69;;;10.46;100.00
19086;BME280;9675;51.538;6.728;2023-04-01T10:14:45;99290.00;;;10.48;100.00
19086;BME280;9675;51.538;6.728;2023-04-01T10:17:55;99291.75;;;10.49;100.00
19086;BME280;9675;51.538;6.728;2023-04-01T10:21:09;99292.63;;;10.50;100.00
19086;BME280;9675;51.538;6.728;2023-04-01T10:24:16;99292.63;;;10.50;100.00
19086;BME280;9675;51.538;6.728;2023-04-01T10:27:06;99294.38;;;10.51;100.00
19086;BME280;9675;51.538;6.728;2023-04-01T10:30:35;99302.97;;;10.53;100.00
19086;BME280;9675;51.538;6.728;2023-04-01T10:33:38;99301.31;;;10.55;100.00
19086;BME280;9675;51.538;6.728;2023-04-01T10:36:47;99307.34;;;10.57;100.00
19086;BME280;9675;51.538;6.728;2023-04-01T10:40:01;99310.03;;;10.60;100.00
19086;BME280;9675;51.538;6.728;2023-04-01T10:46:28;99316.03;;;10.60;100.00
19086;BME280;9675;51.538;6.728;2023-04-01T10:49:34;99324.66;;;10.62;100.00
19086;BME280;9675;51.538;6.728;2023-04-01T10:56:00;99317.84;;;10.64;100.00
19086;BME280;9675;51.538;6.728;2023-04-01T10:59:12;99326.50;;;10.67;100.00
19086;BME280;9675;51.538;6.728;2023-04-01T11:02:18;99334.25;;;10.68;100.00
19086;BME280;9675;51.538;6.728;2023-04-01T11:16:10;99341.19;;;10.71;100.00
19086;BME280;9675;51.538;6.728;2023-04-01T11:22:50;99345.50;;;10.72;100.00
19086;BME280;9675;51.538;6.728;2023-04-01T11:26:04;99352.38;;;10.73;100.00
19086;BME280;9675;51.538;6.728;2023-04-01T11:32:02;99354.13;;;10.74;100.00
19086;BME280;9675;51.538;6.728;2023-04-01T11:34:54;99358.44;;;10.75;100.00
19086;BME280;9675;51.538;6.728;2023-04-01T11:37:38;99372.19;;;10.75;100.00
19086;BME280;9675;51.538;6.728;2023-04-01T11:40:20;99369.66;;;10.77;100.00
19086;BME280;9675;51.538;6.728;2023-04-01T11:43:04;99379.97;;;10.77;100.00
19086;BME280;9675;51.538;6.728;2023-04-01T11:45:37;99371.38;;;10.78;100.00
19086;BME280;9675;51.538;6.728;2023-04-01T11:48:40;99382.63;;;10.81;100.00
19086;BME280;9675;51.538;6.728;2023-04-01T11:51:47;99381.94;;;10.87;100.00
19086;BME280;9675;51.538;6.728;2023-04-01T11:54:51;99392.59;;;11.02;100.00
19086;BME280;9675;51.538;6.728;2023-04-01T11:58:02;99405.13;;;11.23;100.00
19086;BME280;9675;51.538;6.728;2023-04-01T12:04:17;99415.94;;;11.45;100.00
19086;BME280;9675;51.538;6.728;2023-04-01T12:06:59;99417.00;;;11.54;100.00
19086;BME280;9675;51.538;6.728;2023-04-01T12:09:42;99426.69;;;11.64;100.00
19086;BME280;9675;51.538;6.728;2023-04-01T12:12:23;99428.56;;;11.71;100.00
19086;BME280;9675;51.538;6.728;2023-04-01T12:15:05;99430.41;;;11.75;100.00
19086;BME280;9675;51.538;6.728;2023-04-01T12:17:48;99426.19;;;11.78;100.00
19086;BME280;9675;51.538;6.728;2023-04-01T12:20:48;99436.63;;;11.84;100.00
19086;BME280;9675;51.538;6.728;2023-04-01T12:23:47;99444.41;;;11.86;100.00
19086;BME280;9675;51.538;6.728;2023-04-01T12:26:47;99442.06;;;11.98;100.00
19086;BME280;9675;51.538;6.728;2023-04-01T12:29:48;99451.75;;;12.08;100.00
19086;BME280;9675;51.538;6.728;2023-04-01T12:32:34;99449.25;;;12.11;100.00
19086;BME280;9675;51.538;6.728;2023-04-01T12:35:24;99455.28;;;12.13;100.00
19086;BME280;9675;51.538;6.728;2023-04-01T12:38:23;99453.69;;;12.18;100.00
19086;BME280;9675;51.538;6.728;2023-04-01T12:41:09;99456.31;;;12.20;100.00
19086;BME280;9675;51.538;6.728;2023-04-01T12:44:13;99465.84;;;12.22;100.00
19086;BME280;9675;51.538;6.728;2023-04-01T12:47:06;99459.78;;;12.22;100.00
19086;BME280;9675;51.538;6.728;2023-04-01T12:50:25;99469.28;;;12.24;100.00
19086;BME280;9675;51.538;6.728;2023-04-01T12:53:13;99474.53;;;12.27;100.00
19086;BME280;9675;51.538;6.728;2023-04-01T12:55:44;99480.59;;;12.29;100.00
19086;BME280;9675;51.538;6.728;2023-04-01T12:58:57;99483.25;;;12.32;100.00
19086;BME280;9675;51.538;6.728;2023-04-01T13:05:14;99493.59;;;12.34;100.00
19086;BME280;9675;51.538;6.728;2023-04-01T13:08:15;99495.41;;;12.40;100.00
19086;BME280;9675;51.538;6.728;2023-04-01T13:11:06;99499.75;;;12.41;100.00
19086;BME280;9675;51.538;6.728;2023-04-01T13:17:14;99498.91;;;12.42;100.00
19086;BME280;9675;51.538;6.728;2023-04-01T13:19:51;99505.84;;;12.43;100.00
19086;BME280;9675;51.538;6.728;2023-04-01T13:22:35;99506.94;;;12.55;100.00
19086;BME280;9675;51.538;6.728;2023-04-01T13:25:22;99509.47;;;12.52;100.00
19086;BME280;9675;51.538;6.728;2023-04-01T13:28:01;99507.75;;;12.54;100.00
19086;BME280;9675;51.538;6.728;2023-04-01T13:30:43;99518.97;;;12.55;100.00
19086;BME280;9675;51.538;6.728;2023-04-01T13:33:23;99524.13;;;12.53;100.00
19086;BME280;9675;51.538;6.728;2023-04-01T13:36:18;99525.84;;;12.53;100.00
19086;BME280;9675;51.538;6.728;2023-04-01T13:39:22;99524.09;;;12.52;100.00
19086;BME280;9675;51.538;6.728;2023-04-01T13:42:18;99523.25;;;12.53;100.00
19086;BME280;9675;51.538;6.728;2023-04-01T13:44:56;99528.41;;;12.53;100.00
19086;BME280;9675;51.538;6.728;2023-04-01T13:51:41;99531.13;;;12.59;100.00
19086;BME280;9675;51.538;6.728;2023-04-01T13:54:47;99532.00;;;12.61;100.00
19086;BME280;9675;51.538;6.728;2023-04-01T13:57:52;99538.88;;;12.59;100.00
19086;BME280;9675;51.538;6.728;2023-04-01T14:00:42;99541.47;;;12.60;100.00
19086;BME280;9675;51.538;6.728;2023-04-01T14:03:29;99544.00;;;12.57;100.00
19086;BME280;9675;51.538;6.728;2023-04-01T14:06:20;99543.94;;;12.56;100.00
19086;BME280;9675;51.538;6.728;2023-04-01T14:09:29;99544.00;;;12.57;100.00
19086;BME280;9675;51.538;6.728;2023-04-01T14:12:09;99546.63;;;12.59;100.00
19086;BME280;9675;51.538;6.728;2023-04-01T14:15:04;99554.41;;;12.62;100.00
19086;BME280;9675;51.538;6.728;2023-04-01T14:17:55;99553.59;;;12.63;100.00
19086;BME280;9675;51.538;6.728;2023-04-01T14:20:35;99556.16;;;12.64;100.00
19086;BME280;9675;51.538;6.728;2023-04-01T14:23:31;99563.81;;;12.60;100.00
19086;BME280;9675;51.538;6.728;2023-04-01T14:26:26;99565.72;;;12.67;100.00
19086;BME280;9675;51.538;6.728;2023-04-01T14:29:16;99569.91;;;12.62;100.00
19086;BME280;9675;51.538;6.728;2023-04-01T14:32:02;99566.50;;;12.63;100.00
19086;BME280;9675;51.538;6.728;2023-04-01T14:34:53;99571.66;;;12.63;100.00
19086;BME280;9675;51.538;6.728;2023-04-01T14:38:10;99574.25;;;12.63;100.00
19086;BME280;9675;51.538;6.728;2023-04-01T14:40:58;99575.22;;;12.68;100.00
19086;BME280;9675;51.538;6.728;2023-04-01T14:44:01;99580.38;;;12.68;100.00
19086;BME280;9675;51.538;6.728;2023-04-01T14:47:14;99581.25;;;12.70;100.00
19086;BME280;9675;51.538;6.728;2023-04-01T14:49:48;99587.34;;;12.72;100.00
19086;BME280;9675;51.538;6.728;2023-04-01T14:52:26;99592.50;;;12.72;100.00
19086;BME280;9675;51.538;6.728;2023-04-01T14:54:58;99586.41;;;12.70;100.00
19086;BME280;9675;51.538;6.728;2023-04-01T14:57:28;99589.09;;;12.73;100.00
19086;BME280;9675;51.538;6.728;2023-04-01T15:00:13;99591.59;;;12.70;100.00
19086;BME280;9675;51.538;6.728;2023-04-01T15:02:56;99596.66;;;12.65;100.00
19086;BME280;9675;51.538;6.728;2023-04-01T15:05:39;99596.78;;;12.71;100.00
19086;BME280;9675;51.538;6.728;2023-04-01T15:08:20;99599.22;;;12.64;100.00
19086;BME280;9675;51.538;6.728;2023-04-01T15:11:24;99610.44;;;12.66;100.00